Time;durP1;ratioP1;P1;durP2;ratioP2;P2;SDS_P1;SDS_P2;PMS_P1;PMS_P2;Temp;Humidity;BMP_temperature;BMP_pressure;BME280_temperature;BME280_humidity;BME280_pressure;Samples;Min_cycle;Max_cycle;Signal;HPM_P1;HPM_P2
2022/03/08 00:02:02;;;;;;;14.45;8.07;;;0.70;99.90;;;;;;5023387;28;20572;-57
2022/03/08 00:04:28;;;;;;;18.25;9.05;;;0.70;99.90;;;;;;5028632;28;20684;-59
2022/03/08 00:06:54;;;;;;;17.83;8.52;;;0.70;99.90;;;;;;5042340;28;20040;-59
2022/03/08 00:09:20;;;;;;;16.98;8.52;;;0.70;99.90;;;;;;5044562;28;20096;-58
2022/03/08 00:11:46;;;;;;;18.40;8.20;;;0.70;99.90;;;;;;5022429;28;20499;-59
2022/03/08 00:14:12;;;;;;;17.10;8.52;;;0.60;99.90;;;;;;5044331;28;20124;-58
2022/03/08 00:16:37;;;;;;;15.45;8.52;;;0.60;99.90;;;;;;5047125;28;20480;-59
2022/03/08 00:19:03;;;;;;;17.63;9.52;;;0.60;99.90;;;;;;5028435;28;20037;-59
2022/03/08 00:21:28;;;;;;;18.58;8.18;;;0.60;99.90;;;;;;5041059;28;20037;-59
2022/03/08 00:23:55;;;;;;;15.85;8.85;;;0.60;99.90;;;;;;5031110;28;20032;-58
2022/03/08 00:26:22;;;;;;;16.10;8.40;;;0.60;99.90;;;;;;5050319;28;20052;-59
2022/03/08 00:28:48;;;;;;;18.25;8.18;;;0.60;99.90;;;;;;5029302;28;20067;-59
2022/03/08 00:31:13;;;;;;;20.05;9.27;;;0.50;99.90;;;;;;5040946;28;20524;-58
2022/03/08 00:33:40;;;;;;;18.30;8.57;;;0.50;99.90;;;;;;5046834;28;20048;-59
2022/03/08 00:36:06;;;;;;;15.65;8.18;;;0.40;99.90;;;;;;5032285;28;20041;-59
2022/03/08 00:38:31;;;;;;;19.30;8.38;;;0.50;99.90;;;;;;5034867;28;20039;-58
2022/03/08 00:40:57;;;;;;;16.88;8.50;;;0.40;99.90;;;;;;5049816;28;20061;-59
2022/03/08 00:43:23;;;;;;;18.05;8.77;;;0.20;99.90;;;;;;5025225;28;20065;-59
2022/03/08 00:45:48;;;;;;;17.40;8.40;;;0.20;99.90;;;;;;5038869;28;20569;-58
2022/03/08 00:48:14;;;;;;;17.85;8.60;;;0.10;99.90;;;;;;5042728;28;20757;-57
2022/03/08 00:50:40;;;;;;;16.73;8.35;;;0.00;99.90;;;;;;5049850;28;20049;-58
2022/03/08 00:53:06;;;;;;;14.65;7.90;;;0.00;99.90;;;;;;5014740;28;20033;-59
2022/03/08 00:55:33;;;;;;;17.10;8.82;;;-0.10;99.90;;;;;;5033875;28;20056;-58
2022/03/08 00:57:58;;;;;;;18.13;9.27;;;-0.10;99.90;;;;;;5029554;28;20041;-59
2022/03/08 01:00:26;;;;;;;17.75;9.50;;;-0.10;99.90;;;;;;5026069;28;20044;-58
2022/03/08 01:02:52;;;;;;;17.85;8.68;;;-0.10;99.90;;;;;;5040968;28;20044;-57
2022/03/08 01:05:18;;;;;;;18.83;9.18;;;-0.10;99.90;;;;;;5043845;28;20037;-58
2022/03/08 01:07:45;;;;;;;19.23;8.82;;;-0.10;99.90;;;;;;5043841;28;20034;-59
2022/03/08 01:10:15;;;;;;;17.52;9.32;;;-0.20;99.90;;;;;;5034535;28;20103;-58
2022/03/08 01:12:42;;;;;;;19.42;9.55;;;-0.10;99.90;;;;;;5040814;28;20029;-59
2022/03/08 01:15:09;;;;;;;19.88;9.25;;;0.00;99.90;;;;;;5049069;28;20606;-58
2022/03/08 01:17:35;;;;;;;19.58;9.65;;;-0.10;99.90;;;;;;5012120;28;20074;-59
2022/03/08 01:20:01;;;;;;;19.08;9.38;;;-0.20;99.90;;;;;;5037362;28;20123;-58
2022/03/08 01:22:26;;;;;;;20.55;10.10;;;-0.20;99.90;;;;;;5044385;28;20464;-58
2022/03/08 01:24:53;;;;;;;18.90;9.75;;;-0.20;99.90;;;;;;5038424;28;20025;-59
2022/03/08 01:27:18;;;;;;;18.90;10.45;;;-0.20;99.90;;;;;;5033541;28;20039;-59
2022/03/08 01:29:44;;;;;;;21.40;9.80;;;-0.20;99.90;;;;;;5040421;28;20033;-58
2022/03/08 01:32:09;;;;;;;22.70;10.45;;;-0.10;99.90;;;;;;5048995;28;20583;-58
2022/03/08 01:34:35;;;;;;;20.55;10.10;;;-0.10;99.90;;;;;;5036039;28;20539;-59
2022/03/08 01:37:02;;;;;;;22.70;10.45;;;-0.10;99.90;;;;;;5024293;28;20037;-59
2022/03/08 01:39:28;;;;;;;21.83;10.98;;;-0.10;99.90;;;;;;5048706;28;20041;-58
2022/03/08 01:41:53;;;;;;;19.83;9.88;;;-0.10;99.90;;;;;;5037631;28;20045;-58
2022/03/08 01:44:19;;;;;;;21.38;10.07;;;-0.10;99.90;;;;;;5023886;28;20249;-59
2022/03/08 01:46:45;;;;;;;20.65;10.45;;;-0.10;99.90;;;;;;5040390;28;20072;-58
2022/03/08 01:49:12;;;;;;;16.73;9.70;;;-0.20;99.90;;;;;;5048916;28;20124;-58
2022/03/08 01:51:39;;;;;;;20.67;10.88;;;-0.20;99.90;;;;;;5023232;28;20077;-59
2022/03/08 01:54:06;;;;;;;20.08;10.40;;;-0.20;99.90;;;;;;5037546;28;20424;-58
2022/03/08 01:56:33;;;;;;;20.40;10.60;;;-0.20;99.90;;;;;;5036628;28;20033;-59
2022/03/08 01:58:59;;;;;;;19.30;10.57;;;-0.20;99.90;;;;;;5029654;28;20029;-59
2022/03/08 02:01:25;;;;;;;23.40;11.15;;;-0.20;99.90;;;;;;5023105;28;20095;-59
2022/03/08 02:03:50;;;;;;;20.25;10.48;;;-0.10;99.90;;;;;;5046717;28;20033;-58
2022/03/08 02:06:16;;;;;;;21.23;10.60;;;-0.10;99.90;;;;;;5037111;28;20034;-59
2022/03/08 02:08:42;;;;;;;25.83;10.88;;;0.00;99.90;;;;;;5023906;28;20131;-59
2022/03/08 02:11:07;;;;;;;21.70;10.40;;;0.10;99.90;;;;;;5041023;28;20068;-59
2022/03/08 02:13:33;;;;;;;22.42;10.85;;;0.20;99.90;;;;;;5047660;28;20105;-59
2022/03/08 02:15:59;;;;;;;20.20;10.80;;;0.20;99.90;;;;;;5030378;28;20033;-59
2022/03/08 02:18:24;;;;;;;19.92;10.65;;;0.20;99.90;;;;;;5037763;28;20620;-58
2022/03/08 02:20:50;;;;;;;22.73;12.15;;;0.10;99.90;;;;;;5046591;28;20037;-59
2022/03/08 02:23:16;;;;;;;20.45;10.63;;;0.10;99.90;;;;;;5025091;28;20480;-58
2022/03/08 02:25:42;;;;;;;22.77;11.77;;;0.10;99.90;;;;;;5036970;28;20044;-59
2022/03/08 02:28:08;;;;;;;22.00;11.43;;;0.00;99.90;;;;;;5040504;28;20068;-58
2022/03/08 02:30:33;;;;;;;22.25;11.00;;;0.00;99.90;;;;;;5048135;28;20483;-57
2022/03/08 02:32:59;;;;;;;21.98;11.50;;;0.00;99.90;;;;;;5003100;28;20029;-58
2022/03/08 02:35:29;;;;;;;23.05;11.93;;;0.00;99.90;;;;;;5031447;28;20037;-58
2022/03/08 02:38:01;;;;;;;22.83;10.93;;;0.00;99.90;;;;;;5029331;28;20519;-58
2022/03/08 02:40:30;;;;;;;24.30;10.63;;;0.00;99.90;;;;;;5035296;28;20034;-59
2022/03/08 02:42:56;;;;;;;23.30;12.25;;;0.00;99.90;;;;;;5035809;28;20503;-59
2022/03/08 02:45:21;;;;;;;25.13;12.30;;;-0.10;99.90;;;;;;5042870;28;20041;-58
2022/03/08 02:47:47;;;;;;;24.30;11.75;;;-0.10;99.90;;;;;;5040873;28;20036;-58
2022/03/08 02:50:14;;;;;;;22.80;11.95;;;-0.20;99.90;;;;;;5033246;28;20098;-58
2022/03/08 02:52:42;;;;;;;27.27;11.88;;;-0.20;99.90;;;;;;5021515;28;20041;-59
2022/03/08 02:55:11;;;;;;;17.50;10.30;;;-0.30;99.90;;;;;;5047636;28;20495;-59
2022/03/08 02:57:37;;;;;;;22.55;10.82;;;-0.50;99.90;;;;;;5032733;28;20099;-58
2022/03/08 03:00:05;;;;;;;22.42;11.38;;;-0.60;99.90;;;;;;5039565;28;20029;-59
2022/03/08 03:02:31;;;;;;;22.88;11.43;;;-0.70;99.90;;;;;;5047483;28;20080;-58
2022/03/08 03:04:56;;;;;;;23.73;11.73;;;-0.80;99.90;;;;;;5025256;28;20036;-58
2022/03/08 03:07:23;;;;;;;22.98;11.73;;;-0.90;99.90;;;;;;5035797;28;20040;-59
2022/03/08 03:09:50;;;;;;;21.20;11.48;;;-0.90;99.90;;;;;;5021519;28;20040;-58
2022/03/08 03:12:16;;;;;;;23.67;11.68;;;-1.00;99.90;;;;;;5051724;28;20041;-59
2022/03/08 03:14:41;;;;;;;22.15;12.25;;;-1.00;99.90;;;;;;5011895;28;20111;-59
2022/03/08 03:17:07;;;;;;;23.10;12.15;;;-1.00;99.90;;;;;;5032484;28;20041;-59
2022/03/08 03:19:32;;;;;;;26.23;13.70;;;-0.90;99.90;;;;;;5047466;28;20076;-59
2022/03/08 03:21:58;;;;;;;25.60;13.30;;;-0.90;99.90;;;;;;5034164;28;20040;-56
2022/03/08 03:24:23;;;;;;;28.85;12.82;;;-0.90;99.90;;;;;;5039272;28;20033;-57
2022/03/08 03:26:49;;;;;;;27.25;12.95;;;-0.90;99.90;;;;;;5043026;28;20040;-58
2022/03/08 03:29:15;;;;;;;27.23;13.05;;;-0.90;99.90;;;;;;5033521;28;20098;-59
2022/03/08 03:31:40;;;;;;;24.58;12.18;;;-0.90;99.90;;;;;;5030801;28;20046;-58
2022/03/08 03:34:06;;;;;;;27.00;13.23;;;-0.90;99.90;;;;;;5042680;28;20087;-59
2022/03/08 03:36:31;;;;;;;24.55;13.02;;;-0.90;99.90;;;;;;5046985;28;20119;-58
2022/03/08 03:38:57;;;;;;;29.05;13.48;;;-1.00;99.90;;;;;;5038253;28;20040;-59
2022/03/08 03:41:22;;;;;;;25.95;12.80;;;-1.10;99.90;;;;;;5043187;28;20354;-58
2022/03/08 03:46:16;;;;;;;28.85;13.98;;;-1.10;99.90;;;;;;5004390;28;20054;-59
2022/03/08 03:48:42;;;;;;;31.17;14.45;;;-1.10;99.90;;;;;;5014733;28;20119;-59
2022/03/08 03:51:08;;;;;;;27.85;14.57;;;-1.10;99.90;;;;;;5012375;28;20033;-60
2022/03/08 03:53:33;;;;;;;28.30;15.00;;;-1.10;99.90;;;;;;5020463;28;20044;-60
2022/03/08 03:55:59;;;;;;;32.25;13.90;;;-1.10;99.90;;;;;;5020460;28;20499;-59
2022/03/08 03:58:26;;;;;;;29.83;14.32;;;-1.10;99.90;;;;;;5023960;28;20060;-59
2022/03/08 04:00:51;;;;;;;29.45;14.93;;;-1.10;99.90;;;;;;5030932;28;20041;-60
2022/03/08 04:03:18;;;;;;;34.47;15.32;;;-1.00;99.90;;;;;;5016755;28;20045;-60
2022/03/08 04:05:44;;;;;;;30.30;14.50;;;-1.00;99.90;;;;;;5007089;28;20041;-59
2022/03/08 04:08:10;;;;;;;30.42;15.45;;;-0.90;99.90;;;;;;5030402;28;20144;-59
2022/03/08 04:10:37;;;;;;;34.72;15.10;;;-0.90;99.90;;;;;;5031002;28;20048;-59
2022/03/08 04:13:03;;;;;;;32.60;16.13;;;-0.90;99.90;;;;;;4981515;28;20045;-60
2022/03/08 04:15:28;;;;;;;33.45;15.02;;;-0.90;99.90;;;;;;5021692;28;20048;-59
2022/03/08 04:17:54;;;;;;;30.75;15.13;;;-0.90;99.90;;;;;;5030464;28;20116;-59
2022/03/08 04:20:20;;;;;;;32.03;15.48;;;-0.90;99.90;;;;;;5028704;28;20239;-59
2022/03/08 04:22:45;;;;;;;32.35;15.38;;;-0.90;99.90;;;;;;5007760;28;20657;-60
2022/03/08 04:25:11;;;;;;;29.27;14.80;;;-0.90;99.90;;;;;;5017445;28;20025;-59
2022/03/08 04:27:37;;;;;;;31.13;15.85;;;-0.90;99.90;;;;;;5026414;28;20064;-58
2022/03/08 04:30:05;;;;;;;32.13;15.68;;;-0.90;99.90;;;;;;5019890;28;20037;-58
2022/03/08 04:32:30;;;;;;;31.45;15.63;;;-0.90;99.90;;;;;;5030144;28;20080;-59
2022/03/08 04:34:56;;;;;;;33.33;15.80;;;-0.90;99.90;;;;;;5030180;28;20454;-59
2022/03/08 04:37:22;;;;;;;30.33;16.38;;;-0.90;99.90;;;;;;5011036;28;20108;-59
2022/03/08 04:39:47;;;;;;;33.05;15.65;;;-0.90;99.90;;;;;;5011973;28;20081;-59
2022/03/08 04:42:13;;;;;;;33.72;16.13;;;-0.90;99.90;;;;;;5012687;28;20084;-59
2022/03/08 04:44:39;;;;;;;32.20;16.23;;;-0.90;99.90;;;;;;5012729;28;20048;-59
2022/03/08 04:47:05;;;;;;;32.03;15.70;;;-0.80;99.90;;;;;;5022507;28;20132;-59
2022/03/08 04:49:30;;;;;;;36.35;15.90;;;-0.80;99.90;;;;;;5029961;28;20045;-59
2022/03/08 04:51:56;;;;;;;34.28;16.30;;;-0.80;99.90;;;;;;5012376;28;20595;-59
2022/03/08 04:54:21;;;;;;;36.45;15.90;;;-0.80;99.90;;;;;;5014544;28;20448;-59
2022/03/08 04:56:47;;;;;;;31.73;16.27;;;-0.80;99.90;;;;;;5027738;28;20524;-59
2022/03/08 04:59:12;;;;;;;34.58;16.85;;;-0.80;99.90;;;;;;5029728;28;20381;-59
2022/03/08 05:01:38;;;;;;;32.15;17.00;;;-0.80;99.90;;;;;;5016311;28;20038;-58
2022/03/08 05:04:04;;;;;;;36.22;16.73;;;-0.80;99.90;;;;;;5012873;28;20037;-59
2022/03/08 05:06:30;;;;;;;33.78;16.33;;;-0.70;99.90;;;;;;5011570;28;20029;-59
2022/03/08 05:08:56;;;;;;;33.05;16.20;;;-0.70;99.90;;;;;;5029810;28;20051;-59
2022/03/08 05:11:22;;;;;;;35.97;17.80;;;-0.70;99.90;;;;;;5015501;28;20041;-59
2022/03/08 05:13:48;;;;;;;35.22;16.63;;;-0.70;99.90;;;;;;5023321;28;20111;-59
2022/03/08 05:16:14;;;;;;;36.28;17.00;;;-0.60;99.90;;;;;;5029101;28;20077;-59
2022/03/08 05:18:39;;;;;;;40.17;16.75;;;-0.60;99.90;;;;;;5012594;28;20045;-58
2022/03/08 05:21:05;;;;;;;34.50;15.20;;;-0.60;99.90;;;;;;5028218;28;20029;-59
2022/03/08 05:23:30;;;;;;;35.13;17.40;;;-0.60;99.90;;;;;;5011263;28;20061;-59
2022/03/08 05:25:56;;;;;;;35.85;16.13;;;-0.60;99.90;;;;;;5028652;28;20060;-57
2022/03/08 05:28:22;;;;;;;33.63;15.90;;;-0.60;99.90;;;;;;5003850;28;20168;-59
2022/03/08 05:30:47;;;;;;;30.52;16.45;;;-0.60;99.90;;;;;;5004364;28;20034;-59
2022/03/08 05:33:13;;;;;;;30.95;16.02;;;-0.60;99.90;;;;;;5017009;28;20111;-58
2022/03/08 05:35:39;;;;;;;31.27;15.45;;;-0.50;99.90;;;;;;5009675;28;20117;-59
2022/03/08 05:38:05;;;;;;;32.90;15.98;;;-0.60;99.90;;;;;;5025393;28;20091;-59
2022/03/08 05:40:30;;;;;;;28.88;15.70;;;-0.50;99.90;;;;;;5018423;28;20475;-59
2022/03/08 05:42:58;;;;;;;40.15;16.88;;;-0.50;99.90;;;;;;5008825;28;20032;-59
2022/03/08 05:45:24;;;;;;;31.48;16.05;;;-0.50;99.90;;;;;;5028122;28;20041;-59
2022/03/08 05:47:49;;;;;;;29.38;16.05;;;-0.60;99.90;;;;;;5028200;28;20033;-59
2022/03/08 05:50:15;;;;;;;31.33;16.75;;;-0.60;99.90;;;;;;4996427;28;20488;-59
2022/03/08 05:52:40;;;;;;;30.42;15.52;;;-0.60;99.90;;;;;;5008054;28;20116;-59
2022/03/08 05:55:06;;;;;;;30.73;15.63;;;-0.60;99.90;;;;;;5022151;28;20037;-59
2022/03/08 05:57:32;;;;;;;37.55;17.15;;;-0.60;99.90;;;;;;5028115;28;20079;-59
2022/03/08 05:59:58;;;;;;;29.60;14.95;;;-0.70;99.90;;;;;;5019779;28;20061;-59
2022/03/08 06:02:23;;;;;;;29.38;16.00;;;-0.70;99.90;;;;;;5001901;28;20528;-58
2022/03/08 06:04:49;;;;;;;34.03;17.02;;;-0.70;99.90;;;;;;5023212;28;20041;-59
2022/03/08 06:07:15;;;;;;;32.45;16.38;;;-0.70;99.90;;;;;;5025629;28;20041;-59
2022/03/08 06:09:40;;;;;;;33.78;16.73;;;-0.80;99.90;;;;;;5004767;28;20591;-59
2022/03/08 06:12:07;;;;;;;32.42;16.27;;;-0.80;99.90;;;;;;5025153;28;20033;-58
2022/03/08 06:14:32;;;;;;;31.42;16.13;;;-0.80;99.90;;;;;;5024981;28;20045;-59
2022/03/08 06:16:58;;;;;;;28.52;15.30;;;-0.80;99.90;;;;;;5008871;28;20044;-59
2022/03/08 06:19:24;;;;;;;30.95;16.73;;;-0.80;99.90;;;;;;5020489;28;20041;-59
2022/03/08 06:21:51;;;;;;;29.10;15.88;;;-0.70;99.90;;;;;;5024486;28;20127;-59
2022/03/08 06:24:16;;;;;;;31.52;16.00;;;-0.70;99.90;;;;;;5020796;28;20038;-59
2022/03/08 06:26:42;;;;;;;37.75;16.60;;;-0.70;99.90;;;;;;4995176;28;20034;-58
2022/03/08 06:29:08;;;;;;;28.35;15.60;;;-0.60;99.90;;;;;;5023569;28;20045;-57
2022/03/08 06:31:35;;;;;;;32.55;16.35;;;-0.50;99.90;;;;;;5025137;28;20045;-59
2022/03/08 06:34:00;;;;;;;34.72;16.08;;;-0.50;99.90;;;;;;5024826;28;21320;-59
2022/03/08 06:36:26;;;;;;;35.55;17.20;;;-0.50;99.90;;;;;;5005296;28;20120;-59
2022/03/08 06:38:51;;;;;;;31.58;16.10;;;-0.40;99.90;;;;;;5017341;28;20038;-58
2022/03/08 06:41:17;;;;;;;36.00;16.98;;;-0.40;99.90;;;;;;5014985;28;20042;-58
2022/03/08 06:43:42;;;;;;;32.88;16.27;;;-0.30;99.90;;;;;;5009558;28;20033;-59
2022/03/08 06:46:08;;;;;;;38.75;17.60;;;-0.20;99.90;;;;;;5024162;28;20646;-58
2022/03/08 06:48:35;;;;;;;37.95;17.40;;;-0.10;99.90;;;;;;4977453;28;20156;-57
2022/03/08 06:51:01;;;;;;;41.42;17.75;;;-0.10;99.90;;;;;;5010132;28;20060;-58
2022/03/08 06:53:26;;;;;;;32.53;16.50;;;-0.10;99.90;;;;;;5024659;28;20037;-59
2022/03/08 06:55:52;;;;;;;34.53;16.73;;;-0.10;99.90;;;;;;5015837;28;20129;-59
2022/03/08 06:58:18;;;;;;;35.30;16.48;;;-0.10;99.90;;;;;;5006646;28;20042;-58
2022/03/08 07:00:44;;;;;;;35.33;17.08;;;0.00;99.90;;;;;;5023783;28;20053;-57
2022/03/08 07:03:09;;;;;;;30.13;15.98;;;0.00;99.90;;;;;;5027011;28;20394;-57
2022/03/08 07:05:36;;;;;;;33.40;17.10;;;0.00;99.90;;;;;;5027831;28;20108;-59
2022/03/08 07:08:02;;;;;;;32.30;17.13;;;0.10;99.90;;;;;;5019446;28;20029;-58
2022/03/08 07:10:28;;;;;;;29.92;16.08;;;0.10;99.90;;;;;;5019296;28;20515;-57
2022/03/08 07:12:53;;;;;;;31.10;16.25;;;0.30;99.90;;;;;;5027505;28;20038;-59
2022/03/08 07:15:19;;;;;;;30.08;16.48;;;0.30;99.90;;;;;;5010775;28;20034;-58
2022/03/08 07:17:46;;;;;;;32.05;16.13;;;0.40;99.90;;;;;;5019469;28;20487;-58
2022/03/08 07:20:12;;;;;;;33.65;16.73;;;0.50;99.90;;;;;;5027234;28;20736;-59
2022/03/08 07:22:37;;;;;;;33.97;16.98;;;0.60;99.90;;;;;;5021618;28;20034;-58
2022/03/08 07:25:04;;;;;;;31.88;16.85;;;0.70;99.90;;;;;;5016362;28;20036;-58
2022/03/08 07:27:29;;;;;;;29.83;15.90;;;0.70;99.90;;;;;;5021152;28;20042;-59
2022/03/08 07:29:55;;;;;;;29.98;16.63;;;0.80;99.90;;;;;;5005985;28;20388;-58
2022/03/08 07:32:21;;;;;;;30.60;15.52;;;0.90;99.90;;;;;;4986537;28;20048;-58
2022/03/08 07:34:46;;;;;;;34.25;17.10;;;1.00;99.90;;;;;;5011482;28;20042;-58
2022/03/08 07:37:12;;;;;;;31.60;16.10;;;1.10;99.90;;;;;;5027417;28;20072;-58
2022/03/08 07:39:37;;;;;;;28.58;15.73;;;1.20;99.90;;;;;;5027454;28;20045;-59
2022/03/08 07:42:03;;;;;;;31.40;16.00;;;1.30;99.90;;;;;;5008815;28;20057;-58
2022/03/08 07:44:29;;;;;;;30.23;16.27;;;1.40;99.90;;;;;;5016010;28;20087;-59
2022/03/08 07:46:55;;;;;;;25.42;15.02;;;1.50;99.90;;;;;;5026798;28;20514;-59
2022/03/08 07:49:22;;;;;;;26.88;15.13;;;1.60;99.90;;;;;;5015696;28;20049;-59
2022/03/08 07:51:47;;;;;;;31.08;15.82;;;1.60;99.90;;;;;;5026522;28;20059;-58
2022/03/08 07:54:13;;;;;;;35.13;16.75;;;1.70;99.90;;;;;;5027026;28;20038;-59
2022/03/08 07:56:39;;;;;;;27.08;14.80;;;1.90;99.90;;;;;;5010889;28;20403;-61
2022/03/08 07:59:05;;;;;;;29.75;15.15;;;2.00;99.90;;;;;;5030413;28;20530;-58
2022/03/08 08:01:31;;;;;;;30.63;14.48;;;2.10;99.90;;;;;;5030753;28;20045;-57
2022/03/08 08:03:56;;;;;;;30.77;15.65;;;2.20;99.90;;;;;;5025307;28;20049;-57
2022/03/08 08:06:22;;;;;;;28.98;14.75;;;2.30;99.90;;;;;;5001710;28;20117;-57
2022/03/08 08:08:48;;;;;;;28.20;15.85;;;2.40;99.90;;;;;;5010924;28;20427;-58
2022/03/08 08:11:14;;;;;;;29.75;15.10;;;2.50;99.90;;;;;;5030273;28;20592;-58
2022/03/08 08:13:39;;;;;;;27.38;15.57;;;2.60;99.90;;;;;;5030171;28;20069;-57
2022/03/08 08:16:05;;;;;;;28.05;15.95;;;2.60;99.90;;;;;;5016635;28;20143;-59
2022/03/08 08:18:30;;;;;;;26.65;14.90;;;2.70;99.90;;;;;;5017494;28;20064;-58
2022/03/08 08:20:56;;;;;;;31.10;15.73;;;2.80;99.90;;;;;;5026254;28;20063;-59
2022/03/08 08:23:23;;;;;;;23.80;14.13;;;2.80;99.90;;;;;;4998948;28;20071;-59
2022/03/08 08:25:49;;;;;;;27.42;14.90;;;2.90;99.90;;;;;;5027166;28;20072;-59
2022/03/08 08:28:14;;;;;;;29.20;14.85;;;3.00;99.90;;;;;;5030585;28;20088;-59
2022/03/08 08:30:40;;;;;;;27.08;15.70;;;3.10;99.90;;;;;;5030034;28;20069;-58
2022/03/08 08:33:06;;;;;;;35.63;15.70;;;3.10;99.90;;;;;;4996988;28;20055;-59
2022/03/08 08:35:31;;;;;;;25.05;15.02;;;3.20;99.90;;;;;;5004571;28;20103;-59
2022/03/08 08:37:57;;;;;;;24.50;14.82;;;3.30;99.90;;;;;;5025075;28;20041;-58
2022/03/08 08:40:23;;;;;;;26.73;15.23;;;3.40;99.90;;;;;;5001478;28;20427;-59
2022/03/08 08:42:48;;;;;;;26.33;14.75;;;3.50;99.90;;;;;;5029428;28;20060;-57
2022/03/08 08:45:14;;;;;;;23.17;14.05;;;3.60;99.90;;;;;;5029537;28;20041;-59
2022/03/08 08:47:40;;;;;;;28.17;14.07;;;3.70;99.90;;;;;;5016107;28;20044;-59
2022/03/08 08:50:05;;;;;;;24.00;14.68;;;3.80;99.90;;;;;;5029197;28;20041;-61
2022/03/08 08:52:31;;;;;;;25.23;14.90;;;3.80;99.90;;;;;;5029589;28;20049;-60
2022/03/08 08:54:57;;;;;;;27.17;16.55;;;3.90;99.90;;;;;;5014744;28;20037;-59
2022/03/08 08:57:22;;;;;;;27.35;14.98;;;4.00;99.90;;;;;;5013289;28;20446;-60
2022/03/08 08:59:48;;;;;;;29.85;16.73;;;4.10;99.90;;;;;;5029032;28;20079;-60
2022/03/08 09:02:13;;;;;;;26.52;15.07;;;4.20;99.90;;;;;;5029766;28;20025;-59
2022/03/08 09:04:39;;;;;;;24.13;15.18;;;4.30;99.90;;;;;;5003477;28;20052;-60
2022/03/08 09:07:05;;;;;;;29.17;14.65;;;4.40;99.90;;;;;;5023016;28;20041;-60
2022/03/08 09:09:31;;;;;;;26.00;13.68;;;4.50;99.90;;;;;;5029123;28;20045;-60
2022/03/08 09:11:57;;;;;;;22.60;13.65;;;4.50;99.90;;;;;;5016541;28;20060;-60
2022/03/08 09:14:23;;;;;;;22.67;14.00;;;4.60;99.90;;;;;;5017600;28;20051;-60
2022/03/08 09:16:48;;;;;;;25.75;14.65;;;4.70;99.90;;;;;;5029359;28;20712;-60
2022/03/08 09:19:14;;;;;;;26.85;14.70;;;4.80;99.90;;;;;;5029276;28;20488;-59
2022/03/08 09:21:39;;;;;;;27.35;14.48;;;4.90;99.90;;;;;;5006841;28;20070;-60
2022/03/08 09:24:05;;;;;;;21.98;13.65;;;5.00;99.90;;;;;;5019655;28;20721;-60
2022/03/08 09:26:31;;;;;;;25.63;13.93;;;5.10;99.90;;;;;;5029248;28;20042;-60
2022/03/08 09:28:56;;;;;;;21.88;13.98;;;5.20;99.90;;;;;;5006222;28;20120;-60
2022/03/08 09:31:22;;;;;;;22.83;13.02;;;5.30;99.90;;;;;;5028674;28;20052;-60
2022/03/08 09:33:48;;;;;;;22.17;13.52;;;5.30;99.90;;;;;;5028975;28;20038;-60
2022/03/08 09:36:13;;;;;;;23.48;14.05;;;5.40;99.90;;;;;;5029052;28;20048;-60
2022/03/08 09:38:39;;;;;;;20.27;12.73;;;5.50;99.90;;;;;;5005001;28;20037;-60
2022/03/08 09:41:05;;;;;;;20.90;12.27;;;5.50;99.90;;;;;;5028593;28;20060;-60
2022/03/08 09:43:35;;;;;;;22.35;12.18;;;5.60;99.90;;;;;;5028281;28;20044;-60
2022/03/08 09:46:00;;;;;;;19.40;11.98;;;5.70;99.90;;;;;;5047538;23;20079;-60
2022/03/08 09:48:26;;;;;;;20.10;12.02;;;5.80;99.90;;;;;;5058441;28;20072;-60
2022/03/08 09:50:52;;;;;;;17.92;11.30;;;5.80;99.90;;;;;;5067249;28;20032;-60
2022/03/08 09:53:19;;;;;;;20.20;12.13;;;5.90;99.90;;;;;;5061287;28;20556;-58
2022/03/08 09:55:44;;;;;;;19.27;12.07;;;6.00;99.90;;;;;;5056969;28;20037;-58
2022/03/08 09:58:10;;;;;;;20.20;11.90;;;6.10;99.90;;;;;;5067753;28;20044;-58
2022/03/08 10:00:36;;;;;;;17.98;11.55;;;6.20;99.90;;;;;;5068562;28;20037;-58
2022/03/08 10:03:08;;;;;;;18.63;12.80;;;6.20;99.90;;;;;;5053118;28;20850;-58
2022/03/08 10:05:39;;;;;;;20.05;11.13;;;6.30;99.90;;;;;;5029747;28;20068;-58
2022/03/08 10:08:22;;;;;;;15.63;9.52;;;6.50;99.90;;;;;;5067272;28;20170;-58
2022/03/08 10:10:53;;;;;;;17.98;11.48;;;6.60;99.90;;;;;;5067979;28;20040;-58
2022/03/08 10:13:21;;;;;;;15.30;10.07;;;6.70;99.90;;;;;;5056269;28;20464;-58
2022/03/08 10:16:06;;;;;;;17.10;9.52;;;6.80;99.90;;;;;;5066672;28;20111;-58
2022/03/08 10:18:46;;;;;;;16.73;9.80;;;6.80;99.60;;;;;;5059059;28;20056;-58
2022/03/08 10:21:43;;;;;;;16.17;10.23;;;6.90;99.90;;;;;;5060507;28;20033;-57
2022/03/08 10:24:17;;;;;;;16.65;9.73;;;7.00;99.30;;;;;;5047825;28;20037;-58
2022/03/08 10:26:46;;;;;;;14.95;9.50;;;7.10;99.90;;;;;;5048505;28;20094;-58
2022/03/08 10:29:13;;;;;;;14.55;9.45;;;7.20;99.90;;;;;;5060727;28;20039;-58
2022/03/08 10:31:39;;;;;;;15.43;9.60;;;7.30;99.90;;;;;;5067800;28;20036;-58
2022/03/08 10:34:06;;;;;;;15.48;9.55;;;7.30;99.90;;;;;;5067849;28;20040;-58
2022/03/08 10:36:35;;;;;;;15.38;9.65;;;7.30;99.90;;;;;;5053919;28;20067;-58
2022/03/08 10:39:10;;;;;;;14.77;9.63;;;7.30;99.90;;;;;;5067460;28;20074;-58
2022/03/08 10:41:48;;;;;;;16.05;9.85;;;7.50;99.90;;;;;;5068080;28;20087;-58
2022/03/08 10:44:15;;;;;;;13.45;8.07;;;7.50;99.90;;;;;;5061731;28;20029;-58
2022/03/08 10:46:41;;;;;;;13.13;9.30;;;7.70;99.90;;;;;;5064673;28;20036;-58
2022/03/08 10:49:13;;;;;;;12.45;8.70;;;7.70;99.90;;;;;;5067711;28;20051;-58
2022/03/08 10:51:39;;;;;;;13.80;8.75;;;7.80;99.90;;;;;;5062291;28;20159;-58
2022/03/08 10:54:13;;;;;;;14.50;8.75;;;7.80;97.60;;;;;;5061397;28;20102;-58
2022/03/08 10:56:46;;;;;;;12.43;7.93;;;7.90;97.00;;;;;;5067554;28;20051;-58
2022/03/08 10:59:12;;;;;;;13.55;8.60;;;7.90;96.80;;;;;;5062316;28;20044;-58
2022/03/08 11:01:39;;;;;;;16.30;7.82;;;8.00;99.80;;;;;;5050265;28;20037;-58
2022/03/08 11:04:15;;;;;;;12.30;8.30;;;8.10;96.20;;;;;;5067218;28;20029;-58
2022/03/08 11:06:41;;;;;;;11.93;7.70;;;8.10;92.70;;;;;;5059027;28;20320;-58
2022/03/08 11:09:07;;;;;;;12.10;7.10;;;8.10;98.10;;;;;;5056484;28;20033;-58
2022/03/08 11:11:33;;;;;;;12.85;7.85;;;8.20;97.10;;;;;;5063533;28;20766;-58
2022/03/08 11:13:59;;;;;;;13.32;8.15;;;8.30;96.60;;;;;;5067419;28;20040;-58
2022/03/08 11:16:26;;;;;;;15.45;7.70;;;8.30;98.70;;;;;;5067644;28;20449;-58
2022/03/08 11:18:53;;;;;;;15.48;8.35;;;8.40;98.60;;;;;;5054014;28;20079;-58
2022/03/08 11:21:19;;;;;;;11.25;7.13;;;8.50;96.80;;;;;;5061652;28;20064;-58
2022/03/08 11:23:45;;;;;;;11.75;7.38;;;8.60;97.20;;;;;;5048420;28;20131;-60
2022/03/08 11:26:14;;;;;;;14.15;8.85;;;8.60;96.00;;;;;;5059234;28;20024;-58
2022/03/08 11:28:43;;;;;;;11.32;7.25;;;8.70;96.50;;;;;;5065818;28;20119;-58
2022/03/08 11:31:10;;;;;;;10.68;7.18;;;8.70;93.80;;;;;;5066618;28;20039;-59
2022/03/08 11:34:01;;;;;;;9.07;6.32;;;8.90;93.60;;;;;;5062425;28;20064;-58
2022/03/08 11:37:06;;;;;;;9.07;6.03;;;9.00;92.10;;;;;;5066624;28;20528;-58
2022/03/08 11:39:37;;;;;;;10.15;6.25;;;9.00;90.90;;;;;;5017073;28;20056;-58
2022/03/08 11:42:18;;;;;;;8.88;6.20;;;9.10;95.00;;;;;;5055877;28;20064;-58
2022/03/08 11:45:05;;;;;;;11.37;6.10;;;9.20;91.00;;;;;;5070033;28;20045;-58
2022/03/08 11:47:42;;;;;;;9.63;6.07;;;9.30;91.60;;;;;;5071061;28;20618;-58
2022/03/08 11:50:22;;;;;;;9.40;5.80;;;9.30;90.80;;;;;;5067645;28;20047;-58
2022/03/08 11:53:10;;;;;;;9.83;5.17;;;9.40;84.60;;;;;;5050553;28;20048;-59
2022/03/08 11:55:45;;;;;;;11.55;6.05;;;9.50;85.50;;;;;;5070705;28;20044;-58
2022/03/08 11:58:20;;;;;;;8.35;5.50;;;9.50;90.60;;;;;;5063885;28;20068;-58
2022/03/08 12:00:51;;;;;;;8.13;5.47;;;9.70;92.60;;;;;;5060424;28;20056;-58
2022/03/08 12:03:35;;;;;;;7.28;5.50;;;9.80;87.90;;;;;;5070445;28;20040;-58
2022/03/08 12:06:06;;;;;;;8.82;5.60;;;9.80;94.60;;;;;;5070767;28;20029;-59
2022/03/08 12:08:31;;;;;;;9.37;6.23;;;9.70;91.60;;;;;;5055286;28;20041;-58
2022/03/08 12:11:07;;;;;;;9.95;5.78;;;9.80;93.60;;;;;;5063583;28;20289;-59
2022/03/08 12:13:38;;;;;;;9.43;6.22;;;9.90;91.60;;;;;;5070445;28;20533;-59
2022/03/08 12:16:07;;;;;;;8.43;5.78;;;9.90;80.00;;;;;;5058474;28;20036;-59
2022/03/08 12:18:47;;;;;;;9.43;6.10;;;9.90;85.70;;;;;;5067640;28;20106;-58
2022/03/08 12:21:19;;;;;;;9.52;6.03;;;10.00;79.60;;;;;;5067768;28;20458;-58
2022/03/08 12:23:48;;;;;;;;;;;10.00;89.00;;;;;;5065071;28;20041;-58
2022/03/08 12:26:27;;;;;;;12.43;5.97;;;9.90;70.30;;;;;;5050106;28;19928;-58
2022/03/08 12:29:16;;;;;;;10.18;6.43;;;10.10;83.90;;;;;;5068961;28;20142;-58
2022/03/08 12:34:42;;;;;;;9.10;5.80;;;10.20;85.70;;;;;;5063590;28;20063;-58
2022/03/08 12:37:10;;;;;;;8.98;6.22;;;10.20;87.50;;;;;;5062846;28;20271;-58
2022/03/08 12:39:57;;;;;;;11.80;6.28;;;10.30;86.10;;;;;;5068368;28;20112;-58
2022/03/08 12:42:32;;;;;;;9.48;6.57;;;10.40;82.50;;;;;;5062530;28;20048;-58